sensor_id;sensor_type;location;lat;lon;timestamp;temperature;humidity
292;DHT22;23311;48.776;9.162;2022-11-20T00:01:33;5.10;95.50
292;DHT22;23311;48.776;9.162;2022-11-20T00:04:01;5.20;95.50
292;DHT22;23311;48.776;9.162;2022-11-20T00:06:30;5.20;95.50
292;DHT22;23311;48.776;9.162;2022-11-20T00:08:59;5.10;95.50
292;DHT22;23311;48.776;9.162;2022-11-20T00:11:29;5.20;95.50
292;DHT22;23311;48.776;9.162;2022-11-20T00:14:00;5.20;95.50
292;DHT22;23311;48.776;9.162;2022-11-20T00:16:31;5.30;95.50
292;DHT22;23311;48.776;9.162;2022-11-20T00:18:59;5.40;95.50
292;DHT22;23311;48.776;9.162;2022-11-20T00:21:28;5.40;95.50
292;DHT22;23311;48.776;9.162;2022-11-20T00:23:58;5.50;95.50
292;DHT22;23311;48.776;9.162;2022-11-20T00:26:29;5.50;95.50
292;DHT22;23311;48.776;9.162;2022-11-20T00:28:59;5.50;95.50
292;DHT22;23311;48.776;9.162;2022-11-20T00:31:27;5.50;95.50
292;DHT22;23311;48.776;9.162;2022-11-20T00:33:55;5.50;95.50
292;DHT22;23311;48.776;9.162;2022-11-20T00:36:25;5.50;95.50
292;DHT22;23311;48.776;9.162;2022-11-20T00:38:55;5.60;95.50
292;DHT22;23311;48.776;9.162;2022-11-20T00:41:26;5.60;95.50
292;DHT22;23311;48.776;9.162;2022-11-20T00:43:55;5.70;95.50
292;DHT22;23311;48.776;9.162;2022-11-20T00:46:24;5.80;95.50
292;DHT22;23311;48.776;9.162;2022-11-20T00:48:52;5.80;95.50
292;DHT22;23311;48.776;9.162;2022-11-20T00:51:22;5.90;95.50
292;DHT22;23311;48.776;9.162;2022-11-20T00:53:51;5.90;95.50
292;DHT22;23311;48.776;9.162;2022-11-20T00:56:19;5.80;95.50
292;DHT22;23311;48.776;9.162;2022-11-20T00:58:49;5.70;95.50
292;DHT22;23311;48.776;9.162;2022-11-20T01:01:18;5.70;95.50
292;DHT22;23311;48.776;9.162;2022-11-20T01:03:50;5.70;95.50
292;DHT22;23311;48.776;9.162;2022-11-20T01:06:19;5.70;95.50
292;DHT22;23311;48.776;9.162;2022-11-20T01:08:48;5.70;95.50
292;DHT22;23311;48.776;9.162;2022-11-20T01:11:18;5.70;95.50
292;DHT22;23311;48.776;9.162;2022-11-20T01:13:47;5.70;95.50
292;DHT22;23311;48.776;9.162;2022-11-20T01:16:19;5.70;95.50
292;DHT22;23311;48.776;9.162;2022-11-20T01:18:49;5.70;95.50
292;DHT22;23311;48.776;9.162;2022-11-20T01:21:19;5.80;95.50
292;DHT22;23311;48.776;9.162;2022-11-20T01:23:49;5.90;95.50
292;DHT22;23311;48.776;9.162;2022-11-20T01:26:19;5.90;95.50
292;DHT22;23311;48.776;9.162;2022-11-20T01:28:48;5.90;95.50
292;DHT22;23311;48.776;9.162;2022-11-20T01:31:19;5.90;95.50
292;DHT22;23311;48.776;9.162;2022-11-20T01:33:49;5.90;95.50
292;DHT22;23311;48.776;9.162;2022-11-20T01:36:18;5.80;95.50
292;DHT22;23311;48.776;9.162;2022-11-20T01:38:47;5.70;95.50
292;DHT22;23311;48.776;9.162;2022-11-20T01:41:15;5.70;95.50
292;DHT22;23311;48.776;9.162;2022-11-20T01:43:57;5.60;95.50
292;DHT22;23311;48.776;9.162;2022-11-20T01:46:27;5.60;95.50
292;DHT22;23311;48.776;9.162;2022-11-20T01:49:00;5.60;95.50
292;DHT22;23311;48.776;9.162;2022-11-20T01:51:32;5.50;95.50
292;DHT22;23311;48.776;9.162;2022-11-20T01:54:03;5.50;95.50
292;DHT22;23311;48.776;9.162;2022-11-20T01:56:37;5.50;95.50
292;DHT22;23311;48.776;9.162;2022-11-20T01:59:07;5.40;95.50
292;DHT22;23311;48.776;9.162;2022-11-20T02:01:37;5.40;95.50
292;DHT22;23311;48.776;9.162;2022-11-20T02:04:07;5.30;95.50
292;DHT22;23311;48.776;9.162;2022-11-20T02:06:39;5.30;95.50
292;DHT22;23311;48.776;9.162;2022-11-20T02:09:08;5.30;95.50
292;DHT22;23311;48.776;9.162;2022-11-20T02:11:37;5.30;95.50
292;DHT22;23311;48.776;9.162;2022-11-20T02:14:05;5.20;95.50
292;DHT22;23311;48.776;9.162;2022-11-20T02:16:35;5.20;95.50
292;DHT22;23311;48.776;9.162;2022-11-20T02:19:10;5.20;95.50
292;DHT22;23311;48.776;9.162;2022-11-20T02:21:42;5.20;95.50
292;DHT22;23311;48.776;9.162;2022-11-20T02:24:15;5.30;95.50
292;DHT22;23311;48.776;9.162;2022-11-20T02:26:47;5.50;95.50
292;DHT22;23311;48.776;9.162;2022-11-20T02:29:21;5.50;95.50
292;DHT22;23311;48.776;9.162;2022-11-20T02:31:51;5.40;95.50
292;DHT22;23311;48.776;9.162;2022-11-20T02:34:21;5.20;95.50
292;DHT22;23311;48.776;9.162;2022-11-20T02:36:50;5.10;95.50
292;DHT22;23311;48.776;9.162;2022-11-20T02:39:22;5.10;95.50
292;DHT22;23311;48.776;9.162;2022-11-20T02:41:52;5.20;95.50
292;DHT22;23311;48.776;9.162;2022-11-20T02:44:21;5.30;95.50
292;DHT22;23311;48.776;9.162;2022-11-20T02:46:49;5.40;95.50
292;DHT22;23311;48.776;9.162;2022-11-20T02:49:17;5.50;95.50
292;DHT22;23311;48.776;9.162;2022-11-20T02:51:45;5.60;95.50
292;DHT22;23311;48.776;9.162;2022-11-20T02:54:13;5.60;95.50
292;DHT22;23311;48.776;9.162;2022-11-20T02:56:43;5.70;95.50
292;DHT22;23311;48.776;9.162;2022-11-20T02:59:11;5.80;95.50
292;DHT22;23311;48.776;9.162;2022-11-20T03:01:39;5.90;95.50
292;DHT22;23311;48.776;9.162;2022-11-20T03:04:08;5.90;95.50
292;DHT22;23311;48.776;9.162;2022-11-20T03:06:36;5.90;95.50
292;DHT22;23311;48.776;9.162;2022-11-20T03:09:04;5.80;95.50
292;DHT22;23311;48.776;9.162;2022-11-20T03:11:32;5.90;95.50
292;DHT22;23311;48.776;9.162;2022-11-20T03:14:03;5.90;95.50
292;DHT22;23311;48.776;9.162;2022-11-20T03:16:31;5.90;95.50
292;DHT22;23311;48.776;9.162;2022-11-20T03:19:00;5.80;95.50
292;DHT22;23311;48.776;9.162;2022-11-20T03:21:28;5.80;95.50
292;DHT22;23311;48.776;9.162;2022-11-20T03:23:56;5.80;95.50
292;DHT22;23311;48.776;9.162;2022-11-20T03:26:25;5.70;95.50
292;DHT22;23311;48.776;9.162;2022-11-20T03:28:55;5.70;95.50
292;DHT22;23311;48.776;9.162;2022-11-20T03:31:27;5.70;95.50
292;DHT22;23311;48.776;9.162;2022-11-20T03:33:56;5.70;95.50
292;DHT22;23311;48.776;9.162;2022-11-20T03:36:24;5.60;95.50
292;DHT22;23311;48.776;9.162;2022-11-20T03:38:54;5.50;95.50
292;DHT22;23311;48.776;9.162;2022-11-20T03:41:23;5.50;95.50
292;DHT22;23311;48.776;9.162;2022-11-20T03:43:54;5.40;95.50
292;DHT22;23311;48.776;9.162;2022-11-20T03:46:23;5.40;95.50
292;DHT22;23311;48.776;9.162;2022-11-20T03:48:52;5.30;95.50
292;DHT22;23311;48.776;9.162;2022-11-20T03:51:22;5.30;95.50
292;DHT22;23311;48.776;9.162;2022-11-20T03:53:51;5.20;95.50
292;DHT22;23311;48.776;9.162;2022-11-20T03:56:22;5.20;95.50
292;DHT22;23311;48.776;9.162;2022-11-20T03:58:50;5.10;95.50
292;DHT22;23311;48.776;9.162;2022-11-20T04:01:20;5.10;95.50
292;DHT22;23311;48.776;9.162;2022-11-20T04:03:49;5.20;95.50
292;DHT22;23311;48.776;9.162;2022-11-20T04:06:22;5.10;95.50
292;DHT22;23311;48.776;9.162;2022-11-20T04:08:50;5.00;95.50
292;DHT22;23311;48.776;9.162;2022-11-20T04:11:21;4.90;95.50
292;DHT22;23311;48.776;9.162;2022-11-20T04:13:52;4.80;95.50
292;DHT22;23311;48.776;9.162;2022-11-20T04:16:21;4.80;95.50
292;DHT22;23311;48.776;9.162;2022-11-20T04:18:51;4.80;95.50
292;DHT22;23311;48.776;9.162;2022-11-20T04:21:22;4.90;95.50
292;DHT22;23311;48.776;9.162;2022-11-20T04:23:51;4.90;95.50
292;DHT22;23311;48.776;9.162;2022-11-20T04:26:21;5.00;95.50
292;DHT22;23311;48.776;9.162;2022-11-20T04:28:50;5.00;95.50
292;DHT22;23311;48.776;9.162;2022-11-20T04:31:20;5.00;95.50
292;DHT22;23311;48.776;9.162;2022-11-20T04:33:49;5.10;95.50
292;DHT22;23311;48.776;9.162;2022-11-20T04:36:19;5.10;95.50
292;DHT22;23311;48.776;9.162;2022-11-20T04:38:52;5.10;95.50
292;DHT22;23311;48.776;9.162;2022-11-20T04:41:24;5.10;95.50
292;DHT22;23311;48.776;9.162;2022-11-20T04:43:54;5.10;95.50
292;DHT22;23311;48.776;9.162;2022-11-20T04:46:27;5.10;95.50
292;DHT22;23311;48.776;9.162;2022-11-20T04:48:55;5.20;95.50
292;DHT22;23311;48.776;9.162;2022-11-20T04:51:23;5.20;95.50
292;DHT22;23311;48.776;9.162;2022-11-20T04:53:53;5.20;95.50
292;DHT22;23311;48.776;9.162;2022-11-20T04:56:21;5.20;95.50
292;DHT22;23311;48.776;9.162;2022-11-20T04:58:50;5.20;95.50
292;DHT22;23311;48.776;9.162;2022-11-20T05:01:19;5.20;95.50
292;DHT22;23311;48.776;9.162;2022-11-20T05:03:48;5.20;95.50
292;DHT22;23311;48.776;9.162;2022-11-20T05:06:18;5.30;95.50
292;DHT22;23311;48.776;9.162;2022-11-20T05:08:47;5.30;95.50
292;DHT22;23311;48.776;9.162;2022-11-20T05:11:17;5.30;95.50
292;DHT22;23311;48.776;9.162;2022-11-20T05:13:46;5.40;95.50
292;DHT22;23311;48.776;9.162;2022-11-20T05:16:16;5.50;95.50
292;DHT22;23311;48.776;9.162;2022-11-20T05:18:44;5.50;95.50
292;DHT22;23311;48.776;9.162;2022-11-20T05:21:13;5.60;95.50
292;DHT22;23311;48.776;9.162;2022-11-20T05:23:41;5.60;95.50
292;DHT22;23311;48.776;9.162;2022-11-20T05:26:13;5.60;95.50
292;DHT22;23311;48.776;9.162;2022-11-20T05:28:42;5.60;95.50
292;DHT22;23311;48.776;9.162;2022-11-20T05:31:12;5.70;95.50
292;DHT22;23311;48.776;9.162;2022-11-20T05:33:41;5.70;95.50
292;DHT22;23311;48.776;9.162;2022-11-20T05:36:11;5.70;95.50
292;DHT22;23311;48.776;9.162;2022-11-20T05:38:40;5.70;95.50
292;DHT22;23311;48.776;9.162;2022-11-20T05:41:10;5.70;95.50
292;DHT22;23311;48.776;9.162;2022-11-20T05:43:39;5.70;95.50
292;DHT22;23311;48.776;9.162;2022-11-20T05:46:10;5.70;95.50
292;DHT22;23311;48.776;9.162;2022-11-20T05:48:40;5.70;95.50
292;DHT22;23311;48.776;9.162;2022-11-20T05:51:10;5.70;95.50
292;DHT22;23311;48.776;9.162;2022-11-20T05:53:38;5.70;95.50
292;DHT22;23311;48.776;9.162;2022-11-20T05:56:16;5.60;95.50
292;DHT22;23311;48.776;9.162;2022-11-20T05:58:44;5.70;95.50
292;DHT22;23311;48.776;9.162;2022-11-20T06:01:16;5.70;95.50
292;DHT22;23311;48.776;9.162;2022-11-20T06:03:45;5.80;95.50
292;DHT22;23311;48.776;9.162;2022-11-20T06:06:15;5.90;95.50
292;DHT22;23311;48.776;9.162;2022-11-20T06:08:43;5.90;95.50
292;DHT22;23311;48.776;9.162;2022-11-20T06:11:12;5.90;95.50
292;DHT22;23311;48.776;9.162;2022-11-20T06:13:41;5.90;95.50
292;DHT22;23311;48.776;9.162;2022-11-20T06:16:10;5.90;95.50
292;DHT22;23311;48.776;9.162;2022-11-20T06:18:40;5.90;95.50
292;DHT22;23311;48.776;9.162;2022-11-20T06:21:10;5.90;95.50
292;DHT22;23311;48.776;9.162;2022-11-20T06:23:39;6.00;95.50
292;DHT22;23311;48.776;9.162;2022-11-20T06:26:09;6.00;95.50
292;DHT22;23311;48.776;9.162;2022-11-20T06:28:37;6.00;95.50
292;DHT22;23311;48.776;9.162;2022-11-20T06:31:07;6.10;95.50
292;DHT22;23311;48.776;9.162;2022-11-20T06:33:35;6.10;95.50
292;DHT22;23311;48.776;9.162;2022-11-20T06:36:05;6.20;95.50
292;DHT22;23311;48.776;9.162;2022-11-20T06:38:37;6.10;95.50
292;DHT22;23311;48.776;9.162;2022-11-20T06:41:05;6.10;95.50
292;DHT22;23311;48.776;9.162;2022-11-20T06:43:34;6.00;95.50
292;DHT22;23311;48.776;9.162;2022-11-20T06:46:02;6.00;95.50
292;DHT22;23311;48.776;9.162;2022-11-20T06:48:30;6.00;95.50
292;DHT22;23311;48.776;9.162;2022-11-20T06:50:58;6.10;95.50
292;DHT22;23311;48.776;9.162;2022-11-20T06:53:28;6.10;95.50
292;DHT22;23311;48.776;9.162;2022-11-20T06:55:56;6.00;95.50
292;DHT22;23311;48.776;9.162;2022-11-20T06:58:26;6.10;95.50
292;DHT22;23311;48.776;9.162;2022-11-20T07:00:58;6.10;95.50
292;DHT22;23311;48.776;9.162;2022-11-20T07:03:26;6.10;95.50
292;DHT22;23311;48.776;9.162;2022-11-20T07:05:55;6.00;95.50
292;DHT22;23311;48.776;9.162;2022-11-20T07:08:24;6.10;95.50
292;DHT22;23311;48.776;9.162;2022-11-20T07:10:57;6.00;95.50
292;DHT22;23311;48.776;9.162;2022-11-20T07:13:25;6.00;95.50
292;DHT22;23311;48.776;9.162;2022-11-20T07:15:53;6.00;95.50
292;DHT22;23311;48.776;9.162;2022-11-20T07:18:22;6.00;95.50
292;DHT22;23311;48.776;9.162;2022-11-20T07:20:50;6.10;95.50
292;DHT22;23311;48.776;9.162;2022-11-20T07:23:18;6.20;95.50
292;DHT22;23311;48.776;9.162;2022-11-20T07:25:46;6.20;95.50
292;DHT22;23311;48.776;9.162;2022-11-20T07:28:15;6.30;95.50
292;DHT22;23311;48.776;9.162;2022-11-20T07:30:49;6.30;95.50
292;DHT22;23311;48.776;9.162;2022-11-20T07:33:17;6.30;95.50
292;DHT22;23311;48.776;9.162;2022-11-20T07:35:45;6.40;95.50
292;DHT22;23311;48.776;9.162;2022-11-20T07:38:13;6.40;95.50
292;DHT22;23311;48.776;9.162;2022-11-20T07:40:42;6.50;95.50
292;DHT22;23311;48.776;9.162;2022-11-20T07:43:10;6.50;95.50
292;DHT22;23311;48.776;9.162;2022-11-20T07:45:39;6.50;95.50
292;DHT22;23311;48.776;9.162;2022-11-20T07:48:07;6.60;95.50
292;DHT22;23311;48.776;9.162;2022-11-20T07:50:35;6.70;95.50
292;DHT22;23311;48.776;9.162;2022-11-20T07:53:04;6.80;95.50
292;DHT22;23311;48.776;9.162;2022-11-20T07:55:32;6.90;95.50
292;DHT22;23311;48.776;9.162;2022-11-20T07:58:00;6.90;95.50
292;DHT22;23311;48.776;9.162;2022-11-20T08:00:28;7.00;95.50
292;DHT22;23311;48.776;9.162;2022-11-20T08:02:58;7.00;95.50
292;DHT22;23311;48.776;9.162;2022-11-20T08:05:26;7.10;95.50
292;DHT22;23311;48.776;9.162;2022-11-20T08:07:54;7.10;95.50
292;DHT22;23311;48.776;9.162;2022-11-20T08:10:22;7.20;95.50
292;DHT22;23311;48.776;9.162;2022-11-20T08:12:52;7.30;95.50
292;DHT22;23311;48.776;9.162;2022-11-20T08:15:39;7.30;95.50
292;DHT22;23311;48.776;9.162;2022-11-20T08:18:10;7.40;95.50
292;DHT22;23311;48.776;9.162;2022-11-20T08:20:57;7.40;95.50
292;DHT22;23311;48.776;9.162;2022-11-20T08:23:25;7.40;95.50
292;DHT22;23311;48.776;9.162;2022-11-20T08:25:53;7.50;95.50
292;DHT22;23311;48.776;9.162;2022-11-20T08:28:21;7.50;95.50
292;DHT22;23311;48.776;9.162;2022-11-20T08:30:49;7.60;95.50
292;DHT22;23311;48.776;9.162;2022-11-20T08:33:19;7.60;95.50
292;DHT22;23311;48.776;9.162;2022-11-20T08:35:47;7.60;95.50
292;DHT22;23311;48.776;9.162;2022-11-20T08:38:15;7.60;95.50
292;DHT22;23311;48.776;9.162;2022-11-20T08:40:43;7.70;95.50
292;DHT22;23311;48.776;9.162;2022-11-20T08:43:32;7.60;95.50
292;DHT22;23311;48.776;9.162;2022-11-20T08:46:00;7.70;95.50
292;DHT22;23311;48.776;9.162;2022-11-20T08:48:29;7.80;95.50
292;DHT22;23311;48.776;9.162;2022-11-20T08:50:58;7.90;95.50
292;DHT22;23311;48.776;9.162;2022-11-20T08:53:26;8.20;95.50
292;DHT22;23311;48.776;9.162;2022-11-20T08:55:56;8.30;95.50
292;DHT22;23311;48.776;9.162;2022-11-20T08:58:24;8.60;95.50
292;DHT22;23311;48.776;9.162;2022-11-20T09:00:53;8.70;95.50
292;DHT22;23311;48.776;9.162;2022-11-20T09:03:21;8.80;95.50
292;DHT22;23311;48.776;9.162;2022-11-20T09:05:58;8.90;95.50
292;DHT22;23311;48.776;9.162;2022-11-20T09:08:28;9.00;95.50
292;DHT22;23311;48.776;9.162;2022-11-20T09:10:57;9.10;95.50
292;DHT22;23311;48.776;9.162;2022-11-20T09:13:27;9.00;95.50
292;DHT22;23311;48.776;9.162;2022-11-20T09:15:56;8.90;95.50
292;DHT22;23311;48.776;9.162;2022-11-20T09:18:24;8.80;95.50
292;DHT22;23311;48.776;9.162;2022-11-20T09:20:58;8.60;95.50
292;DHT22;23311;48.776;9.162;2022-11-20T09:23:26;8.60;95.50
292;DHT22;23311;48.776;9.162;2022-11-20T09:25:55;8.70;95.50
292;DHT22;23311;48.776;9.162;2022-11-20T09:28:26;8.70;95.50
292;DHT22;23311;48.776;9.162;2022-11-20T09:30:54;8.70;95.50
292;DHT22;23311;48.776;9.162;2022-11-20T09:33:22;8.70;95.50
292;DHT22;23311;48.776;9.162;2022-11-20T09:35:50;8.70;95.50
292;DHT22;23311;48.776;9.162;2022-11-20T09:38:19;8.80;95.50
292;DHT22;23311;48.776;9.162;2022-11-20T09:40:51;8.60;95.50
292;DHT22;23311;48.776;9.162;2022-11-20T09:43:27;8.50;95.50
292;DHT22;23311;48.776;9.162;2022-11-20T09:46:07;8.50;95.50
292;DHT22;23311;48.776;9.162;2022-11-20T09:48:47;8.40;95.50
292;DHT22;23311;48.776;9.162;2022-11-20T09:51:23;8.50;95.50
292;DHT22;23311;48.776;9.162;2022-11-20T09:54:06;8.60;95.50
292;DHT22;23311;48.776;9.162;2022-11-20T09:56:40;8.80;95.50
292;DHT22;23311;48.776;9.162;2022-11-20T09:59:24;8.90;95.50
292;DHT22;23311;48.776;9.162;2022-11-20T10:01:54;9.00;95.50
292;DHT22;23311;48.776;9.162;2022-11-20T10:04:23;8.80;95.50
292;DHT22;23311;48.776;9.162;2022-11-20T10:06:56;8.80;95.50
292;DHT22;23311;48.776;9.162;2022-11-20T10:09:52;8.90;95.50
292;DHT22;23311;48.776;9.162;2022-11-20T10:12:27;8.70;95.50
292;DHT22;23311;48.776;9.162;2022-11-20T10:15:10;8.60;95.50
292;DHT22;23311;48.776;9.162;2022-11-20T10:17:55;8.40;95.50
292;DHT22;23311;48.776;9.162;2022-11-20T10:20:30;8.50;95.50
292;DHT22;23311;48.776;9.162;2022-11-20T10:23:22;8.40;95.50
292;DHT22;23311;48.776;9.162;2022-11-20T10:25:58;8.40;95.50
292;DHT22;23311;48.776;9.162;2022-11-20T10:28:46;8.20;95.50
292;DHT22;23311;48.776;9.162;2022-11-20T10:31:29;7.90;95.50
292;DHT22;23311;48.776;9.162;2022-11-20T10:34:02;7.70;95.50
292;DHT22;23311;48.776;9.162;2022-11-20T10:36:41;7.60;95.50
292;DHT22;23311;48.776;9.162;2022-11-20T10:39:16;7.50;95.50
292;DHT22;23311;48.776;9.162;2022-11-20T10:41:50;7.40;95.50
292;DHT22;23311;48.776;9.162;2022-11-20T10:44:21;7.30;95.50
292;DHT22;23311;48.776;9.162;2022-11-20T10:47:13;7.30;95.50
292;DHT22;23311;48.776;9.162;2022-11-20T10:49:42;7.20;95.50
292;DHT22;23311;48.776;9.162;2022-11-20T10:52:16;7.20;95.50
292;DHT22;23311;48.776;9.162;2022-11-20T10:54:54;7.10;95.50
292;DHT22;23311;48.776;9.162;2022-11-20T10:57:35;7.10;95.50
292;DHT22;23311;48.776;9.162;2022-11-20T11:00:09;7.10;95.50
292;DHT22;23311;48.776;9.162;2022-11-20T11:02:42;7.20;95.50
292;DHT22;23311;48.776;9.162;2022-11-20T11:05:25;7.30;95.50
292;DHT22;23311;48.776;9.162;2022-11-20T11:07:56;7.50;95.50
292;DHT22;23311;48.776;9.162;2022-11-20T11:10:31;7.60;95.50
292;DHT22;23311;48.776;9.162;2022-11-20T11:13:03;7.50;95.50
292;DHT22;23311;48.776;9.162;2022-11-20T11:15:37;7.50;95.50
292;DHT22;23311;48.776;9.162;2022-11-20T11:18:08;7.50;95.50
292;DHT22;23311;48.776;9.162;2022-11-20T11:20:37;7.50;95.50
292;DHT22;23311;48.776;9.162;2022-11-20T11:23:10;7.50;95.50
292;DHT22;23311;48.776;9.162;2022-11-20T11:25:57;7.70;95.50
292;DHT22;23311;48.776;9.162;2022-11-20T11:28:27;7.80;95.50
292;DHT22;23311;48.776;9.162;2022-11-20T11:30:56;7.80;95.50
292;DHT22;23311;48.776;9.162;2022-11-20T11:33:26;8.00;95.50
292;DHT22;23311;48.776;9.162;2022-11-20T11:35:57;8.00;95.50
292;DHT22;23311;48.776;9.162;2022-11-20T11:38:30;7.90;95.50
292;DHT22;23311;48.776;9.162;2022-11-20T11:40:59;7.80;95.50
292;DHT22;23311;48.776;9.162;2022-11-20T11:43:31;7.80;95.50
292;DHT22;23311;48.776;9.162;2022-11-20T11:46:35;7.70;95.50
292;DHT22;23311;48.776;9.162;2022-11-20T11:49:15;7.80;95.50
292;DHT22;23311;48.776;9.162;2022-11-20T11:51:58;7.90;95.50
292;DHT22;23311;48.776;9.162;2022-11-20T11:54:31;7.90;95.50
292;DHT22;23311;48.776;9.162;2022-11-20T11:57:05;8.00;95.50
292;DHT22;23311;48.776;9.162;2022-11-20T11:59:47;8.10;95.50
292;DHT22;23311;48.776;9.162;2022-11-20T12:02:29;8.20;95.50
292;DHT22;23311;48.776;9.162;2022-11-20T12:05:02;8.20;95.50
292;DHT22;23311;48.776;9.162;2022-11-20T12:07:39;8.30;95.50
292;DHT22;23311;48.776;9.162;2022-11-20T12:10:22;8.30;95.50
292;DHT22;23311;48.776;9.162;2022-11-20T12:12:54;8.20;95.50
292;DHT22;23311;48.776;9.162;2022-11-20T12:15:33;8.20;95.50
292;DHT22;23311;48.776;9.162;2022-11-20T12:18:02;8.20;95.50
292;DHT22;23311;48.776;9.162;2022-11-20T12:20:35;8.40;95.50
292;DHT22;23311;48.776;9.162;2022-11-20T12:23:11;8.50;95.50
292;DHT22;23311;48.776;9.162;2022-11-20T12:25:47;8.70;95.50
292;DHT22;23311;48.776;9.162;2022-11-20T12:28:32;8.90;95.50
292;DHT22;23311;48.776;9.162;2022-11-20T12:31:24;9.10;95.50
292;DHT22;23311;48.776;9.162;2022-11-20T12:34:16;9.20;95.50
292;DHT22;23311;48.776;9.162;2022-11-20T12:36:52;9.20;95.50
292;DHT22;23311;48.776;9.162;2022-11-20T12:39:35;9.20;95.50
292;DHT22;23311;48.776;9.162;2022-11-20T12:42:21;9.20;95.50
292;DHT22;23311;48.776;9.162;2022-11-20T12:45:22;9.20;95.50
292;DHT22;23311;48.776;9.162;2022-11-20T12:51:11;9.30;95.50
292;DHT22;23311;48.776;9.162;2022-11-20T12:53:53;9.30;95.50
292;DHT22;23311;48.776;9.162;2022-11-20T12:56:35;9.30;95.50
292;DHT22;23311;48.776;9.162;2022-11-20T12:59:21;9.30;95.50
292;DHT22;23311;48.776;9.162;2022-11-20T13:01:55;9.30;95.50
292;DHT22;23311;48.776;9.162;2022-11-20T13:04:43;9.30;95.50
292;DHT22;23311;48.776;9.162;2022-11-20T13:07:17;9.30;94.90
292;DHT22;23311;48.776;9.162;2022-11-20T13:09:49;9.40;94.40
292;DHT22;23311;48.776;9.162;2022-11-20T13:12:24;9.50;93.90
292;DHT22;23311;48.776;9.162;2022-11-20T13:14:58;9.70;94.40
292;DHT22;23311;48.776;9.162;2022-11-20T13:17:36;9.60;92.90
292;DHT22;23311;48.776;9.162;2022-11-20T13:20:06;9.60;92.90
292;DHT22;23311;48.776;9.162;2022-11-20T13:22:44;9.60;93.50
292;DHT22;23311;48.776;9.162;2022-11-20T13:25:23;9.50;93.00
292;DHT22;23311;48.776;9.162;2022-11-20T13:27:52;9.30;93.00
292;DHT22;23311;48.776;9.162;2022-11-20T13:30:21;9.20;93.30
292;DHT22;23311;48.776;9.162;2022-11-20T13:32:52;9.10;93.20
292;DHT22;23311;48.776;9.162;2022-11-20T13:35:31;9.00;93.60
292;DHT22;23311;48.776;9.162;2022-11-20T13:38:04;9.00;93.90
292;DHT22;23311;48.776;9.162;2022-11-20T13:40:33;8.90;95.50
292;DHT22;23311;48.776;9.162;2022-11-20T13:43:10;8.90;95.30
292;DHT22;23311;48.776;9.162;2022-11-20T13:45:39;8.90;94.40
292;DHT22;23311;48.776;9.162;2022-11-20T13:48:19;8.80;94.80
292;DHT22;23311;48.776;9.162;2022-11-20T13:50:58;8.70;94.90
292;DHT22;23311;48.776;9.162;2022-11-20T13:56:43;8.80;95.20
292;DHT22;23311;48.776;9.162;2022-11-20T13:59:28;8.80;95.50
292;DHT22;23311;48.776;9.162;2022-11-20T14:01:58;8.70;95.50
292;DHT22;23311;48.776;9.162;2022-11-20T14:04:31;8.40;95.50
292;DHT22;23311;48.776;9.162;2022-11-20T14:07:01;8.10;95.50
292;DHT22;23311;48.776;9.162;2022-11-20T14:09:32;8.00;95.50
292;DHT22;23311;48.776;9.162;2022-11-20T14:12:02;7.90;95.50
292;DHT22;23311;48.776;9.162;2022-11-20T14:14:31;7.80;95.50
292;DHT22;23311;48.776;9.162;2022-11-20T14:17:07;7.60;95.50
292;DHT22;23311;48.776;9.162;2022-11-20T14:19:36;7.70;95.50
292;DHT22;23311;48.776;9.162;2022-11-20T14:22:14;7.70;95.50
292;DHT22;23311;48.776;9.162;2022-11-20T14:24:45;7.60;95.50
292;DHT22;23311;48.776;9.162;2022-11-20T14:27:15;7.60;95.50
292;DHT22;23311;48.776;9.162;2022-11-20T14:29:45;7.60;95.50
292;DHT22;23311;48.776;9.162;2022-11-20T14:32:16;7.50;95.50
292;DHT22;23311;48.776;9.162;2022-11-20T14:34:47;7.60;95.50
292;DHT22;23311;48.776;9.162;2022-11-20T14:37:20;7.60;95.50
292;DHT22;23311;48.776;9.162;2022-11-20T14:39:51;7.70;95.50
292;DHT22;23311;48.776;9.162;2022-11-20T14:42:22;7.70;95.50
292;DHT22;23311;48.776;9.162;2022-11-20T14:44:54;7.70;95.50
292;DHT22;23311;48.776;9.162;2022-11-20T14:47:27;7.70;95.50
292;DHT22;23311;48.776;9.162;2022-11-20T14:49:57;7.70;95.50
292;DHT22;23311;48.776;9.162;2022-11-20T14:52:26;7.70;95.50
292;DHT22;23311;48.776;9.162;2022-11-20T14:54:57;7.80;95.50
292;DHT22;23311;48.776;9.162;2022-11-20T14:57:27;7.70;95.50
292;DHT22;23311;48.776;9.162;2022-11-20T15:00:17;7.70;95.50
292;DHT22;23311;48.776;9.162;2022-11-20T15:02:48;7.60;95.50
292;DHT22;23311;48.776;9.162;2022-11-20T15:05:18;7.60;95.50
292;DHT22;23311;48.776;9.162;2022-11-20T15:07:49;7.50;95.50
292;DHT22;23311;48.776;9.162;2022-11-20T15:10:24;7.50;95.50
292;DHT22;23311;48.776;9.162;2022-11-20T15:12:55;7.40;95.50
292;DHT22;23311;48.776;9.162;2022-11-20T15:15:27;7.40;95.50
292;DHT22;23311;48.776;9.162;2022-11-20T15:17:57;7.30;95.50
292;DHT22;23311;48.776;9.162;2022-11-20T15:20:27;7.20;95.50
292;DHT22;23311;48.776;9.162;2022-11-20T15:22:56;7.20;95.50
292;DHT22;23311;48.776;9.162;2022-11-20T15:25:25;7.10;95.50
292;DHT22;23311;48.776;9.162;2022-11-20T15:27:55;7.10;95.50
292;DHT22;23311;48.776;9.162;2022-11-20T15:30:24;7.10;95.50
292;DHT22;23311;48.776;9.162;2022-11-20T15:32:52;6.90;95.50
292;DHT22;23311;48.776;9.162;2022-11-20T15:35:20;6.90;95.50
292;DHT22;23311;48.776;9.162;2022-11-20T15:37:49;6.80;95.50
292;DHT22;23311;48.776;9.162;2022-11-20T15:40:17;6.80;95.50
292;DHT22;23311;48.776;9.162;2022-11-20T15:42:46;6.70;95.50
292;DHT22;23311;48.776;9.162;2022-11-20T15:45:36;6.70;95.50
292;DHT22;23311;48.776;9.162;2022-11-20T15:48:09;6.70;95.50
292;DHT22;23311;48.776;9.162;2022-11-20T15:50:39;6.50;95.50
292;DHT22;23311;48.776;9.162;2022-11-20T15:53:10;6.40;95.50
292;DHT22;23311;48.776;9.162;2022-11-20T15:55:38;6.30;95.50
292;DHT22;23311;48.776;9.162;2022-11-20T15:58:08;6.30;95.50
292;DHT22;23311;48.776;9.162;2022-11-20T16:00:36;6.40;95.50
292;DHT22;23311;48.776;9.162;2022-11-20T16:03:04;6.40;95.50
292;DHT22;23311;48.776;9.162;2022-11-20T16:05:33;6.40;95.50
292;DHT22;23311;48.776;9.162;2022-11-20T16:08:01;6.30;95.50
292;DHT22;23311;48.776;9.162;2022-11-20T16:10:37;6.30;95.50
292;DHT22;23311;48.776;9.162;2022-11-20T16:13:11;6.40;95.50
292;DHT22;23311;48.776;9.162;2022-11-20T16:15:59;6.40;95.50
292;DHT22;23311;48.776;9.162;2022-11-20T16:18:28;6.40;95.50
292;DHT22;23311;48.776;9.162;2022-11-20T16:20:56;6.40;95.50
292;DHT22;23311;48.776;9.162;2022-11-20T16:23:24;6.40;95.50
292;DHT22;23311;48.776;9.162;2022-11-20T16:25:52;6.40;95.50
292;DHT22;23311;48.776;9.162;2022-11-20T16:28:22;6.50;95.50
292;DHT22;23311;48.776;9.162;2022-11-20T16:30:50;6.50;95.50
292;DHT22;23311;48.776;9.162;2022-11-20T16:33:18;6.60;95.50
292;DHT22;23311;48.776;9.162;2022-11-20T16:35:46;6.60;95.50
292;DHT22;23311;48.776;9.162;2022-11-20T16:38:14;6.70;95.50
292;DHT22;23311;48.776;9.162;2022-11-20T16:40:43;6.70;95.50
292;DHT22;23311;48.776;9.162;2022-11-20T16:43:13;6.80;95.50
292;DHT22;23311;48.776;9.162;2022-11-20T16:45:44;6.80;95.50
292;DHT22;23311;48.776;9.162;2022-11-20T16:48:14;6.80;95.50
292;DHT22;23311;48.776;9.162;2022-11-20T16:50:45;6.80;95.50
292;DHT22;23311;48.776;9.162;2022-11-20T16:53:14;6.80;95.50